Latest Coastal Weather Observations for Samuel Hill

IDQ60701

Issued at 3:25 pm EST Friday 29 August 2014 (issued every 10 minutes, with the page automatically refreshed every 10 minutes)

About coastal observations | Map of coastal stations | Coastal observations for QLD | Marine services | Other Formats
Station Details ID: 033308 Name: SAMUEL HILL AERO Lat: -22.74 Lon: 150.66 Height: 31.0 m
Data from the previous 72 hours. | See also: Recent months at Samuel Hill
Date/Time
EST
Temp

°C
Wind Pressure Rain
since 9am
mm
Weather Cloud Vis
km
Sea
Height
m
Swell
Dir
 
Speed
knots
Gust
knots
hPa Trend Height
m
Period
s
Dir
29/03:00pm 22.0 SE 8 13 1018.9 - 0.0 - - 10 - - - -
29/02:30pm 21.7 ESE 10 14 1019.2 - 0.0 - - 10 - - - -
29/02:00pm 22.2 ESE 7 12 1019.5 - 0.0 - Partly cloudy 10 - - - -
29/01:30pm 22.0 ESE 8 12 1019.7 - 0.0 - Partly cloudy 10 - - - -
29/01:00pm 21.5 SE 8 12 1020.1 - 0.0 - Partly cloudy 10 - - - -
29/12:30pm 21.5 SE 9 14 1020.5 - 0.0 - Partly cloudy 10 - - - -
29/12:00pm 21.5 SE 8 13 1020.8 - 0.0 - Mostly clear 10 - - - -
29/11:30am 20.7 SSE 9 15 1021.4 - 0.0 - Partly cloudy 10 - - - -
29/11:00am 20.8 SSE 9 14 1021.9 - 0.0 - Partly cloudy 10 - - - -
29/10:30am 20.5 ESE 9 15 1022.2 - 0.0 - Partly cloudy 10 - - - -
29/10:00am 20.1 ESE 12 16 1022.4 - 0.0 - Partly cloudy 10 - - - -
29/09:30am 19.5 ESE 10 15 1022.2 - 0.0 - Partly cloudy 10 - - - -
29/09:00am 19.9 SE 9 15 1022.1 - 0.0 - Partly cloudy 10 - - - -
29/08:30am 18.6 ESE 11 19 1022.0 - 0.0 - Partly cloudy 10 - - - -
29/08:00am 17.4 SSE 5 7 1021.9 - 0.0 - Partly cloudy 10 - - - -
29/07:30am 15.9 S 4 6 1021.6 - 0.0 - Partly cloudy 10 - - - -
29/07:00am 14.7 S 5 8 1021.2 - 0.0 - - 10 - - - -
29/06:30am 13.6 SSW 5 6 1020.9 - 0.0 - - 10 - - - -
29/06:00am 13.7 S 5 7 1020.7 - 0.0 - - 10 - - - -
29/05:30am 13.5 S 5 6 1020.4 - 0.0 - Partly cloudy 10 - - - -
29/05:00am 11.0 S 1 5 1020.2 - 0.0 - Partly cloudy 10 - - - -
29/04:30am 12.0 SSE 5 5 1019.8 - 0.0 - Partly cloudy 10 - - - -
29/04:00am 11.7 SE 5 6 1019.6 - 0.0 - Partly cloudy 10 - - - -
29/03:30am 10.9 SE 5 6 1019.4 - 0.0 - - 10 - - - -
29/03:00am 9.7 SE 1 4 1019.4 - 0.0 - - 10 - - - -
29/02:30am 10.7 SSE 4 5 1019.4 - 0.0 - - 10 - - - -
29/02:00am 9.9 CALM 0 0 1019.5 - 0.0 - - 10 - - - -
29/01:30am 9.9 CALM 0 0 1019.7 - 0.0 - - 10 - - - -
29/01:00am 10.2 CALM 0 0 1019.7 - 0.0 - - 10 - - - -
29/12:30am 10.8 SSE 3 4 1019.8 - 0.0 - - 10 - - - -
29/12:00am 11.0 WSW 0 0 1020.0 - 0.0 - - 10 - - - -
 
Date/Time
EST
Temp

°C
Wind Pressure Rain
since 9am
mm
Weather Cloud Vis
km
Sea
Height
m
Swell
Dir
 
Speed
knots
Gust
knots
hPa Trend Height
m
Period
s
Dir
28/11:30pm 11.3 CALM 0 0 1020.0 - 0.0 - - 10 - - - -
28/11:00pm 11.8 CALM 0 0 1020.1 - 0.0 - Partly cloudy 10 - - - -
28/10:30pm 12.7 CALM 0 0 1020.0 - 0.0 - Partly cloudy 10 - - - -
28/10:00pm 13.0 CALM 0 0 1020.1 - 0.0 - Partly cloudy 10 - - - -
28/09:30pm 13.3 CALM 0 0 1020.1 - 0.0 - Cloudy 10 - - - -
28/09:00pm 13.3 CALM 0 0 1020.0 - 0.0 - Mostly cloudy 10 - - - -
28/08:30pm 12.7 CALM 0 0 1019.8 - 0.0 - Partly cloudy 10 - - - -
28/08:00pm 13.0 CALM 0 0 1019.6 - 0.0 - - 10 - - - -
28/07:30pm 14.3 CALM 0 0 1019.2 - 0.0 - - 10 - - - -
28/07:00pm 14.8 N 4 5 1018.6 - 0.0 - - 10 - - - -
28/06:30pm 17.1 NNW 2 4 1018.0 - 0.0 - - 10 - - - -
28/06:00pm 18.5 CALM 0 3 1017.4 - 0.0 - - 10 - - - -
28/05:30pm 20.5 S 5 7 1016.8 - 0.0 - - 10 - - - -
28/05:00pm 22.3 E 5 7 1016.6 - 0.0 - - 10 - - - -
28/04:30pm 23.4 ESE 6 9 1016.2 - 0.0 - - 10 - - - -
28/04:00pm 23.9 E 4 7 1015.8 - 0.0 - - 10 - - - -
28/03:30pm 24.0 ESE 5 8 1015.7 - 0.0 - - 10 - - - -
28/03:00pm 23.6 SSE 6 9 1015.6 - 0.0 - - 10 - - - -
28/02:30pm 23.6 SE 6 9 1015.8 - 0.0 - - 10 - - - -
28/02:00pm 23.6 SW 7 11 1016.0 - 0.0 - - 10 - - - -
28/01:30pm 23.5 SSW 5 10 1016.1 - 0.0 - - 10 - - - -
28/01:00pm 22.7 SE 6 13 1016.5 - 0.0 - - 10 - - - -
28/12:30pm 22.6 S 5 10 1016.8 - 0.0 - - 10 - - - -
28/12:00pm 22.1 SSE 8 11 1017.3 - 0.0 - - 10 - - - -
28/11:30am 21.5 SW 9 14 1017.7 - 0.0 - - 10 - - - -
28/11:00am 21.2 SSE 9 16 1017.9 - 0.0 - - 10 - - - -
28/10:30am 20.4 S 8 12 1018.0 - 0.0 - - 10 - - - -
28/10:00am 19.5 SSW 11 14 1018.5 - 0.0 - - 10 - - - -
28/09:30am 19.5 S 8 12 1018.7 - 0.0 - - 10 - - - -
28/09:00am 18.8 SW 4 7 1018.6 - 0.0 - - 10 - - - -
28/08:30am 17.1 NNW 2 4 1018.4 - 0.0 - - 10 - - - -
28/08:00am 15.2 NW 1 4 1018.4 - 0.0 - - 10 - - - -
28/07:30am 13.9 CALM 0 4 1018.3 - 0.0 - - 10 - - - -
28/07:00am 10.6 E 2 5 1018.0 - 0.0 - - 10 - - - -
28/06:30am 8.9 N 3 5 1017.9 - 0.0 - - 10 - - - -
28/06:00am 10.1 SW 8 10 1017.3 - 0.0 - - 9 - - - -
28/05:30am 7.2 WSW 6 8 1017.4 - 0.0 - - 10 - - - -
28/05:00am 6.7 W 1 5 1017.4 - 0.0 - - 10 - - - -
28/04:30am 6.0 CALM 0 0 1017.2 - 0.0 - - 10 - - - -
28/04:00am 6.4 SW 2 4 1017.1 - 0.0 - - 10 - - - -
28/03:30am 6.2 CALM 0 3 1017.1 - 0.0 - - 10 - - - -
28/03:00am 5.9 CALM 0 0 1017.3 - 0.0 - - 10 - - - -
28/02:30am 6.1 N 1 4 1017.3 - 0.0 - - 10 - - - -
28/02:00am 6.2 CALM 0 0 1017.2 - 0.0 - - 10 - - - -
28/01:30am 6.4 E 1 4 1017.5 - 0.0 - - 10 - - - -
28/01:00am 6.9 CALM 0 0 1017.7 - 0.0 - - 10 - - - -
28/12:30am 7.1 CALM 0 0 1017.5 - 0.0 - - 10 - - - -
28/12:00am 7.1 CALM 0 0 1017.4 - 0.0 - - 10 - - - -
 
Date/Time
EST
Temp

°C
Wind Pressure Rain
since 9am
mm
Weather Cloud Vis
km
Sea
Height
m
Swell
Dir
 
Speed
knots
Gust
knots
hPa Trend Height
m
Period
s
Dir
27/11:30pm 7.5 CALM 0 0 1017.3 - 0.0 - - 10 - - - -
27/11:00pm 7.8 CALM 0 0 1017.4 - 0.0 - - 10 - - - -
27/10:30pm 8.2 CALM 0 0 1017.4 - 0.0 - - 10 - - - -
27/10:00pm 8.6 CALM 0 0 1017.2 - 0.0 - - 10 - - - -
27/09:30pm 8.9 CALM 0 0 1017.1 - 0.0 - - 10 - - - -
27/09:00pm 9.4 CALM 0 0 1016.9 - 0.0 - - 10 - - - -
27/08:30pm 9.9 CALM 0 0 1016.6 - 0.0 - - 10 - - - -
27/08:00pm 10.4 CALM 0 0 1016.2 - 0.0 - - 10 - - - -
27/07:30pm 10.8 CALM 0 0 1015.8 - 0.0 - - 10 - - - -
27/07:00pm 12.6 CALM 0 0 1015.5 - 0.0 - - 10 - - - -
27/06:30pm 13.9 S 3 4 1014.9 - 0.0 - - 10 - - - -
27/06:00pm 18.0 S 3 5 1014.4 - 0.0 - - 10 - - - -
27/05:30pm 21.5 S 5 7 1014.0 - 0.0 - - 10 - - - -
27/05:00pm 23.4 SSW 5 9 1013.7 - 0.0 - - 10 - - - -
27/04:30pm 24.2 SW 7 14 1013.3 - 0.0 - - 10 - - - -
27/04:00pm 24.8 SW 7 9 1013.0 - 0.0 - - 10 - - - -
27/03:30pm 25.0 SW 8 12 1012.9 - 0.0 - - 10 - - - -
27/03:00pm 25.1 SW 9 13 1013.0 - 0.0 - - 10 - - - -
27/02:30pm 25.4 SW 8 13 1013.2 - 0.0 - - 10 - - - -
27/02:00pm 25.5 WSW 7 13 1013.4 - 0.0 - - 10 - - - -
27/01:30pm 24.7 SW 9 17 1013.8 - 0.0 - - 10 - - - -
27/01:00pm 24.2 SSW 8 12 1014.2 - 0.0 - - 10 - - - -
27/12:30pm 23.7 SSW 5 12 1014.5 - 0.0 - - 10 - - - -
27/12:00pm 23.2 SW 5 10 1014.9 - 0.0 - Mostly clear 10 - - - -
27/11:30am 23.2 NW 6 12 1015.5 - 0.0 - Partly cloudy 10 - - - -
27/11:00am 22.9 WNW 7 11 1015.8 - 0.0 - - 10 - - - -
27/10:30am 21.1 WNW 4 9 1016.3 - 0.0 - - 10 - - - -
27/10:00am 20.0 WNW 4 7 1016.8 - 0.0 - - 10 - - - -
27/09:30am 18.6 SW 4 6 1017.0 - 0.0 - - 10 - - - -
27/09:00am 17.5 CALM 0 0 1017.1 - 0.0 - - 10 - - - -
27/08:30am 14.8 SSE 1 3 1017.3 - 0.0 - Cloudy 10 - - - -
27/08:00am 13.3 CALM 0 0 1016.9 - 0.0 - Partly cloudy 10 - - - -
27/07:30am 11.5 CALM 0 0 1016.5 - 0.0 - - 10 - - - -
27/07:00am 9.6 CALM 0 0 1016.1 - 0.0 - - 10 - - - -
27/06:30am 8.3 CALM 0 0 1015.9 - 0.0 - - 10 - - - -
27/06:00am 8.4 CALM 0 0 1015.6 - 0.0 - - 10 - - - -
27/05:30am 8.4 CALM 0 0 1015.4 - 0.0 - - 10 - - - -
27/05:00am 9.6 CALM 0 0 1015.3 - 0.0 - - 10 - - - -
27/04:30am 9.4 CALM 0 3 1015.2 - 0.0 - - 10 - - - -
27/04:25am 9.4 CALM 0 0 1015.2 - 0.0 - - 10 - - - -
27/04:04am 9.7 N 1 5 1015.3 - 0.0 - Partly cloudy 2 - - - -
27/04:00am 9.7 ENE 1 3 1015.2 - 0.0 - Partly cloudy 3 - - - -
27/03:30am 9.4 CALM 0 0 1015.2 - 0.0 - Partly cloudy 5 - - - -
27/03:00am 9.6 CALM 0 0 1015.3 - 0.0 - Cloudy 0.5 - - - -
27/02:30am 9.3 CALM 0 0 1015.3 - 0.0 - Partly cloudy 0.5 - - - -
27/02:16am 8.9 CALM 0 0 1015.4 - 0.0 - Partly cloudy 7 - - - -
27/02:00am 8.9 CALM 0 0 1015.4 - 0.0 - Cloudy 10 - - - -
27/01:30am 9.0 CALM 0 0 1015.5 - 0.0 - Partly cloudy 10 - - - -
27/01:24am 9.1 CALM 0 0 1015.7 - 0.0 - Partly cloudy 10 - - - -
27/01:00am 9.1 CALM 0 0 1016.0 - 0.0 - - 10 - - - -
27/12:30am 9.9 SW 1 5 1016.3 - 0.0 - - 10 - - - -
27/12:00am 9.7 CALM 0 0 1016.4 - 0.0 - - 10 - - - -
 
Date/Time
EST
Temp

°C
Wind Pressure Rain
since 9am
mm
Weather Cloud Vis
km
Sea
Height
m
Swell
Dir
 
Speed
knots
Gust
knots
hPa Trend Height
m
Period
s
Dir
26/11:30pm 10.1 CALM 0 0 1016.5 - 0.0 - - 10 - - - -
26/11:00pm 10.1 CALM 0 0 1016.6 - 0.0 - - 10 - - - -
26/10:30pm 10.7 CALM 0 0 1016.6 - 0.0 - - 10 - - - -
26/10:00pm 10.6 CALM 0 0 1016.8 - 0.0 - - 10 - - - -
26/09:30pm 11.7 CALM 0 0 1016.7 - 0.0 - - 10 - - - -
26/09:00pm 11.7 CALM 0 0 1016.7 - 0.0 - - 10 - - - -
26/08:30pm 12.4 CALM 0 0 1016.6 - 0.0 - - 10 - - - -
26/08:00pm 12.8 CALM 0 0 1016.3 - 0.0 - - 10 - - - -
26/07:30pm 13.5 WSW 3 5 1016.0 - 0.0 - - 10 - - - -
26/07:00pm 15.0 CALM 0 0 1015.8 - 0.0 - - 10 - - - -
26/06:30pm 16.4 CALM 0 0 1015.4 - 0.0 - - 10 - - - -
26/06:00pm 18.0 N 4 5 1015.1 - 0.0 - - 10 - - - -
26/05:30pm 19.5 N 5 9 1014.9 - 0.0 - - 10 - - - -
26/05:00pm 21.3 NNE 6 10 1014.5 - 0.0 - - 10 - - - -
26/04:30pm 22.3 ENE 7 9 1014.3 - 0.0 - - 10 - - - -
26/04:00pm 22.7 ENE 7 10 1014.1 - 0.0 - - 10 - - - -
26/03:30pm 23.2 ENE 8 13 1014.1 - 0.0 - - 10 - - - -

Other Formats:

Comma delimited format used in spreadsheet applications
http://www.bom.gov.au/fwo/IDQ60701/IDQ60701.94370.axf

JavaScript Object Notation format (JSON) in row-major order
http://www.bom.gov.au/fwo/IDQ60701/IDQ60701.94370.json